Tiempo atmosférico en la estación meteorológica de San Bartolome Tirajana, Las Tirajanas, Las Palmas (960 m.)



Fecha
DESCASC
Temp. máxima en grados centígrados (hora)
DESCASC
Temp. mínima en grados centígrados (hora)
DESCASC
Temp. media en grados centígrados
DESCASC
Racha de viento máxima en m/sg (hora)
DESCASC
Velocidad máxima media en intervalos de 10 minutos(hora)
DESCASC
Precipitaciones diarias en mm
DESCASC
Precipitaciones de 00:00 a 06:00 en mm
DESCASC
Precipitaciones de 06:00 a 12:00 en mm
DESCASC
Precipitaciones de 12:00 a 18:00 en mm
DESCASC
Precipitaciones de 18:00 a 24:00 en mm
DESCASC
26-11-2020 13.1 (11:30) 8.9 (22:20) 11 20.56 (20:40) 11.39 (20:30) 8.8 0 0.2 4.8 3.8
25-11-2020 21.2 (11:30) 11.1 (23:50) 16.2 13.33 (23:59) 8.33 (23:20) 0.2 0 0 0 0.2
24-11-2020 20.4 (15:10) 14.3 (04:50) 17.3 4.44 (12:20) 2.22 (12:30) 0 0 0 0 0
23-11-2020 21.5 (11:30) 14.2 (05:00) 17.8 5.83 (12:20) 2.78 (09:50) 0 0 0 0 0
22-11-2020 22.2 (12:50) 14.4 (00:00) 18.3 8.89 (01:50) 3.61 (01:20) 0 0 0 0 0
21-11-2020 21.5 (12:50) 13.9 (00:00) 17.7 10.83 (22:30) 5 (22:30) 0 0 0 0 0
20-11-2020 22.9 (13:20) 16.1 (00:00) 19.5 6.11 (11:10) 3.33 (10:20) 0 0 0 0 0
19-11-2020 25 (12:00) 17.3 (00:00) 21.1 5.28 (12:10) 2.78 (12:10) 0 0 0 0 0
18-11-2020 27.3 (13:40) 19 (00:00) 23.1 6.11 (13:20) 2.5 (03:00) 0 0 0 0 0
17-11-2020 27.5 (12:30) 19.6 (00:00) 23.6 7.78 (22:40) 3.89 (22:50) 0 0 0 0 0
16-11-2020 27.7 (12:00) 19.4 (00:00) 23.6 6.39 (11:40) 2.5 (11:40) 0 0 0 0 0
15-11-2020 26.6 (14:00) 19.2 (00:00) 22.9 10.56 (14:10) 3.61 (13:40) 0 0 0 0 0
14-11-2020 26.5 (13:40) 18.6 (00:00) 22.6 11.11 (12:30) 3.89 (11:10) 0 0 0 0 0
13-11-2020 21.8 (13:00) 19.1 (00:00) 20.4 3.06 (21:20) 1.94 (23:10) 0 0 0 0 0
12-11-2020 25.9 (14:00) 19.2 (00:00) 22.6 7.22 (00:10) 3.89 (00:10) 0 0 0 0 0
11-11-2020 24.7 (10:30) 17.7 (00:00) 21.2 9.17 (21:30) 4.72 (21:50) 0 0 0 0 0
10-11-2020 21.2 (20:00) 10.8 (00:00) 16 8.06 (19:20) 3.89 (19:20) 0 0 0 0 0
09-11-2020 21.5 (13:00) 10.5 (00:00) 16 5.83 (12:10) 2.22 (13:50) 0 0 0 0 0
08-11-2020 21.1 (12:50) 11.4 (00:00) 16.3 5.28 (11:40) 2.22 (12:20) 0 0 0 0 0
07-11-2020 18.7 (11:00) 10.5 (00:00) 14.6 4.17 (12:30) 2.22 (06:50) 0 0 0 0 0
06-11-2020 17.6 (16:50) 11.4 (00:00) 14.5 14.17 (05:00) 6.11 (09:30) 13.4 0 12.8 0.6 0
05-11-2020 17.9 (13:50) 11.4 (00:00) 14.6 11.67 (23:50) 5 (21:20) 0 0 0 0 0
04-11-2020 22.4 (12:50) 12.9 (00:00) 17.6 6.11 (13:30) 2.5 (06:50) 0 0 0 0 0
03-11-2020 24.2 (13:30) 15.1 (00:00) 19.7 7.22 (13:40) 2.5 (03:00) 0 0 0 0 0
02-11-2020 26.1 (12:00) 15.5 (00:00) 20.8 15.28 (00:30) 8.61 (00:30) 0 0 0 0 0
01-11-2020 26.2 (14:30) 19.8 (00:00) 23 14.72 (23:30) 8.61 (23:10) 0 0 0 0 0
31-10-2020 25.9 (12:30) 18.3 (00:00) 22.1 10.83 (15:00) 4.72 (14:40) 0 0 0 0 0
30-10-2020 26.3 (13:50) 13.9 (00:00) 20.1 10 (23:40) 2.78 (06:50) 0 0 0 0 0

Gráficas

Temp. máximas Temp. mínimas Temp. medias Precipitaciones Rachas de viento máximas Velocidades máximas media en intervalos de 10 minutos

Datos horarios

Fecha y hora oficial Temperatura (ºC) Velocidad del viento (km/h) Dirección del viento Racha (km/h) Dirección de racha Precipitación (mm) Presión (hPa) Tendencia (hPa) Humedad (%)
2020-11-28 23:00:00 11.4 13 Noroeste 25 Noroeste 0 -- -- 86
2020-11-28 22:00:00 11.6 6 Oeste 13 Oeste 0 -- -- 88
2020-11-28 21:00:00 11.4 4 Sudeste 8 Noroeste 0 -- -- 94
2020-11-28 20:00:00 11.3 2 Sudoeste 5 Noroeste 0 -- -- 94
2020-11-28 19:00:00 11.6 0 Calma 4 Oeste 0 -- -- 93
2020-11-28 18:00:00 11.9 2 Oeste 4 Oeste 0 -- -- 91
2020-11-28 17:00:00 12.3 3 Nordeste 7 Este 0.2 -- -- 94
2020-11-28 16:00:00 12.4 3 Este 7 Este 0.2 -- -- 94
2020-11-28 15:00:00 13 3 Este 8 Este 1.6 -- -- 93
2020-11-28 14:00:00 13.8 3 Este 11 Sur 0.2 -- -- 89
2020-11-28 13:00:00 14.4 3 Este 10 Este 0 -- -- 83
2020-11-28 12:00:00 14.3 4 Noroeste 10 Este 0 -- -- 80
2020-11-28 11:00:00 14.8 4 Este 13 Este 0 -- -- 74
2020-11-28 10:00:00 13.7 4 Este 11 Este 0 -- -- 77
2020-11-28 09:00:00 11.5 2 Norte 7 Noroeste 0 -- -- 87
2020-11-28 08:00:00 9.7 4 Noroeste 10 Sur 0 -- -- 91
2020-11-28 07:00:00 9.8 7 Noroeste 12 Noroeste 0 -- -- 92
2020-11-28 06:00:00 10.4 4 Noroeste 8 Oeste 0 -- -- 92
2020-11-28 05:00:00 10.2 5 Noroeste 11 Noroeste 0 -- -- 94
2020-11-28 04:00:00 10 3 Noroeste 6 Noroeste 0.2 -- -- 95
2020-11-28 03:00:00 10.4 4 Oeste 11 Norte 0.8 -- -- 94
2020-11-28 02:00:00 10.5 2 Noroeste 10 Noroeste 0 -- -- 91
2020-11-28 01:00:00 10.5 4 Oeste 13 Sudeste 0 -- -- 89
2020-11-28 00:00:00 10.5 0 Calma 13 Noroeste 0 -- -- 89
2020-11-27 23:00:00 10.5 5 Noroeste 13 Oeste 0 -- -- 89
2020-11-27 22:00:00 10.5 3 Sudeste 8 Noroeste 0 -- -- 88
2020-11-27 21:00:00 11 0 Calma 8 Sur 0 -- -- 88
2020-11-27 20:00:00 11.1 4 Sur 13 Sudeste 0 -- -- 85
2020-11-27 19:00:00 11.6 4 Sudeste 35 Oeste 0 -- -- 80
2020-11-27 18:00:00 12.2 10 Noroeste 30 Oeste 0 -- -- 65
2020-11-27 17:00:00 12.4 9 Oeste 39 Noroeste 0 -- -- 71
2020-11-27 16:00:00 13 12 Oeste 44 Noroeste 0 -- -- 62
2020-11-27 15:00:00 13.9 5 Noroeste 21 Oeste 0 -- -- 65
2020-11-27 14:00:00 13.9 3 Este 12 Oeste 0 -- -- 64
2020-11-27 13:00:00 12.7 6 Noroeste 17 Noroeste 0 -- -- 69
2020-11-27 12:00:00 12.9 6 Noroeste 30 Noroeste 0 -- -- 69
2020-11-27 11:00:00 11.4 11 Oeste 32 Noroeste 0 -- -- 77
2020-11-27 10:00:00 10.6 8 Noroeste 40 Noroeste 0 -- -- 78
2020-11-27 09:00:00 10 21 Noroeste 52 Noroeste 0.2 -- -- 73
2020-11-27 08:00:00 9.3 12 Noroeste 42 Noroeste 0.2 -- -- 73
2020-11-27 07:00:00 9.1 13 Noroeste 34 Noroeste 0 -- -- 81
2020-11-27 06:00:00 8.7 9 Norte 35 Oeste 0.2 -- -- 80
2020-11-27 05:00:00 7.9 6 Noroeste 21 Noroeste 0.6 -- -- 90
2020-11-27 04:00:00 8.9 9 Oeste 37 Oeste 0.2 -- -- 77
2020-11-27 03:00:00 8.3 10 Norte 41 Noroeste 0.8 -- -- 81
2020-11-27 02:00:00 9 17 Noroeste 43 Noroeste 0.4 -- -- 77
2020-11-27 01:00:00 9.1 23 Noroeste 54 Noroeste 0 -- -- 77
2020-11-27 00:00:00 9.1 22 Noroeste 55 Noroeste 0.8 -- -- 76
2020-11-26 23:00:00 9.1 19 Noroeste 68 Noroeste 0.6 -- -- 81
2020-11-26 22:00:00 9.3 19 Oeste 48 Oeste 1.2 -- -- 81
2020-11-26 21:00:00 9.8 28 Noroeste 74 Noroeste 0 -- -- 70
2020-11-26 20:00:00 10.1 26 Noroeste 53 Oeste 0.2 -- -- 77
2020-11-26 19:00:00 9.8 14 Oeste 48 Norte 1 -- -- 77
2020-11-26 18:00:00 10.1 19 Noroeste 45 Oeste 2.4 -- -- 85
2020-11-26 17:00:00 10.7 21 Oeste 55 Oeste 0.4 -- -- 81
2020-11-26 16:00:00 11.4 20 Oeste 49 Oeste 0.4 -- -- 71
2020-11-26 15:00:00 12.2 20 Noroeste 49 Noroeste 1 -- -- 66
2020-11-26 14:00:00 11.2 13 Oeste 36 Oeste 0.4 -- -- 82
2020-11-26 13:00:00 11.6 11 Oeste 37 Oeste 0.2 -- -- 79
2020-11-26 12:00:00 12.3 16 Noroeste 37 Noroeste 0.2 -- -- 77
2020-11-26 11:00:00 11.8 10 Oeste 33 Oeste 0 -- -- 68
2020-11-26 10:00:00 12.2 5 Noroeste 18 Sur 0 -- -- 66
2020-11-26 09:00:00 11.5 6 Sur 33 Oeste 0 -- -- 64
2020-11-26 08:00:00 10.6 20 Oeste 53 Noroeste 0 -- -- 66
2020-11-26 07:00:00 10.2 15 Oeste 41 Oeste 0 -- -- 74
2020-11-26 06:00:00 10.6 17 Oeste 53 Oeste 0 -- -- 73
2020-11-26 05:00:00 10.2 24 Oeste 43 Oeste 0 -- -- 76
2020-11-26 04:00:00 10.6 33 Noroeste 48 Noroeste 0 -- -- 69
2020-11-26 03:00:00 10.8 20 Noroeste 53 Oeste 0 -- -- 70
2020-11-26 02:00:00 10.9 22 Oeste 49 Noroeste 0 -- -- 70
2020-11-26 01:00:00 11.1 28 Noroeste 49 Noroeste 0 -- -- 74
2020-11-26 00:00:00 11.1 30 Noroeste 48 Noroeste 0 -- -- 74
2020-11-25 23:00:00 12.1 16 Noroeste 32 Noroeste 0.2 -- -- 78
2020-11-25 22:00:00 13 13 Oeste 36 Oeste 0 -- -- 77
2020-11-25 21:00:00 13.2 18 Oeste 32 Oeste 0 -- -- 76
2020-11-25 20:00:00 13.4 6 Oeste 23 Oeste 0 -- -- 74
2020-11-25 19:00:00 14.2 15 Oeste 26 Oeste 0 -- -- 68
2020-11-25 18:00:00 14.9 8 Noroeste 31 Noroeste 0 -- -- 58
2020-11-25 17:00:00 17 4 Este 22 Noroeste 0 -- -- 61
2020-11-25 16:00:00 17.4 8 Sur 21 Sur 0 -- -- 62
2020-11-25 15:00:00 19.2 6 Sur 22 Sudeste 0 -- -- 53
2020-11-25 14:00:00 21.2 6 Este 20 Sudeste 0 -- -- 43
2020-11-25 13:00:00 20.6 8 Este 21 Este 0 -- -- 41
2020-11-25 12:00:00 21.1 6 Este 18 Este 0 -- -- 29
2020-11-25 11:00:00 20.5 5 Este 15 Este 0 -- -- 25
2020-11-25 10:00:00 19.2 5 Oeste 17 Oeste 0 -- -- 24
2020-11-25 09:00:00 16.2 3 Norte 18 Oeste 0 -- -- 26
2020-11-25 08:00:00 14.8 10 Oeste 17 Oeste 0 -- -- 26
2020-11-25 07:00:00 14.3 6 Oeste 12 Oeste 0 -- -- 27
2020-11-25 06:00:00 14.7 6 Oeste 11 Noroeste 0 -- -- 26
2020-11-25 05:00:00 14.2 6 Oeste 9 Noroeste 0 -- -- 26
2020-11-25 04:00:00 14.5 7 Oeste 9 Noroeste 0 -- -- 27
2020-11-25 03:00:00 14.1 6 Oeste 8 Oeste 0 -- -- 32
2020-11-25 02:00:00 14.9 3 Sudoeste 10 Noroeste 0 -- -- 30
2020-11-25 01:00:00 14.2 6 Oeste 9 Noroeste 0 -- -- 29
2020-11-25 00:00:00 14.4 4 Noroeste 11 Noroeste 0 -- -- 30
2020-11-24 23:00:00 14.7 5 Oeste 8 Noroeste 0 -- -- 30
2020-11-24 22:00:00 15.1 3 Noroeste 6 Nordeste 0 -- -- 34
2020-11-24 21:00:00 15.2 3 Noroeste 7 Noroeste 0 -- -- 33
2020-11-24 20:00:00 15.5 2 Nordeste 5 Norte 0 -- -- 33
2020-11-24 19:00:00 15.9 3 Oeste 6 Sudeste 0 -- -- 30
2020-11-24 18:00:00 17.4 0 Calma 6 Sudeste 0 -- -- 31
2020-11-24 17:00:00 18.8 0 Calma 9 Este 0 -- -- 26
2020-11-24 16:00:00 19.6 4 Sudeste 12 Sudeste 0 -- -- 22
2020-11-24 15:00:00 20.1 4 Sudeste 12 Sudeste 0 -- -- 23
2020-11-24 14:00:00 20 4 Este 12 Este 0 -- -- 22
2020-11-24 13:00:00 19.6 4 Sudeste 16 Este 0 -- -- 20
2020-11-24 12:00:00 19 4 Nordeste 11 Nordeste 0 -- -- 19
2020-11-24 11:00:00 18.3 3 Este 11 Este 0 -- -- 22
2020-11-24 10:00:00 17.5 3 Este 9 Este 0 -- -- 23
2020-11-24 09:00:00 15.6 0 Calma 9 Sudeste 0 -- -- 25
2020-11-24 08:00:00 15.8 5 Nordeste 9 Nordeste 0 -- -- 28
2020-11-24 07:00:00 15.3 0 Calma 4 Sudeste 0 -- -- 26
2020-11-24 06:00:00 15.2 0 Calma 7 Noroeste 0 -- -- 26
2020-11-24 05:00:00 14.4 3 Noroeste 8 Oeste 0 -- -- 32
2020-11-24 04:00:00 14.6 5 Oeste 9 Sudoeste 0 -- -- 36
2020-11-24 03:00:00 14.7 0 Calma 10 Este 0 -- -- 39
2020-11-24 02:00:00 15.1 3 Noroeste 6 Oeste 0 -- -- 36
2020-11-24 01:00:00 15.3 2 Sudoeste 4 Sudeste 0 -- -- 34
2020-11-24 00:00:00 15.7 0 Calma 6 Nordeste 0 -- -- 33
2020-11-23 23:00:00 16.1 3 Norte 7 Norte 0 -- -- 32
2020-11-23 22:00:00 15.6 3 Oeste 6 Sudoeste 0 -- -- 33
2020-11-23 21:00:00 15.8 3 Sudoeste 9 Norte 0 -- -- 32
2020-11-23 20:00:00 16.3 4 Nordeste 12 Nordeste 0 -- -- 32
2020-11-23 19:00:00 16.1 3 Noroeste 6 Noroeste 0 -- -- 37
2020-11-23 18:00:00 17.4 3 Sudeste 10 Sudeste 0 -- -- 35
2020-11-23 17:00:00 19.5 4 Sudeste 12 Sudeste 0 -- -- 31
2020-11-23 16:00:00 19.4 3 Este 13 Este 0 -- -- 31
2020-11-23 15:00:00 20.8 3 Sudeste 17 Este 0 -- -- 30
2020-11-23 14:00:00 20.7 5 Sudeste 19 Este 0 -- -- 31
2020-11-23 13:00:00 21.2 6 Este 21 Este 0 -- -- 30
2020-11-23 12:00:00 21.4 7 Este 20 Sudeste 0 -- -- 32
2020-11-23 11:00:00 20.8 7 Este 18 Este 0 -- -- 32
2020-11-23 10:00:00 19.5 7 Este 16 Este 0 -- -- 32
2020-11-23 09:00:00 16.9 6 Este 13 Nordeste 0 -- -- 37
2020-11-23 08:00:00 14.9 4 Nordeste 10 Norte 0 -- -- 40
2020-11-23 07:00:00 14.7 4 Noroeste 11 Noroeste 0 -- -- 41
2020-11-23 06:00:00 14.4 2 Nordeste 7 Oeste 0 -- -- 41
2020-11-23 05:00:00 14.2 5 Noroeste 8 Oeste 0 -- -- 43
2020-11-23 04:00:00 15.6 4 Nordeste 15 Este 0 -- -- 40
2020-11-23 03:00:00 16.5 5 Este 15 Nordeste 0 -- -- 36
2020-11-23 02:00:00 16.9 7 Nordeste 19 Este 0 -- -- 35
2020-11-23 01:00:00 16.4 5 Este 12 Este 0 -- -- 36
2020-11-23 00:00:00 16.7 4 Sudeste 9 Sudoeste 0 -- -- 35
2020-11-22 23:00:00 16.5 3 Sudoeste 15 Nordeste 0 -- -- 34
2020-11-22 22:00:00 15.9 3 Norte 15 Este 0 -- -- 32
2020-11-22 21:00:00 16.3 4 Sudeste 21 Este 0 -- -- 34
2020-11-22 20:00:00 16.4 9 Este 26 Este 0 -- -- 34
2020-11-22 19:00:00 16.2 6 Sudeste 14 Sudeste 0 -- -- 36
2020-11-22 18:00:00 17.3 6 Sudeste 15 Sudeste 0 -- -- 39
2020-11-22 17:00:00 19.2 6 Sudeste 19 Sudeste 0 -- -- 37
2020-11-22 16:00:00 20.7 7 Sudeste 23 Sudeste 0 -- -- 35
2020-11-22 15:00:00 21.4 8 Sudeste 21 Sudeste 0 -- -- 36
2020-11-22 14:00:00 21.5 6 Este 21 Este 0 -- -- 38
2020-11-22 13:00:00 22.2 7 Sudeste 23 Este 0 -- -- 33
2020-11-22 12:00:00 21.9 6 Sudeste 24 Este 0 -- -- 34
2020-11-22 11:00:00 19.5 8 Este 18 Este 0 -- -- 35
2020-11-22 10:00:00 17.8 3 Este 16 Este 0 -- -- 38
2020-11-22 09:00:00 16.6 5 Este 14 Este 0 -- -- 39
2020-11-22 08:00:00 14.8 4 Sudeste 18 Este 0 -- -- 44
2020-11-22 07:00:00 14.6 6 Este 19 Este 0 -- -- 43
2020-11-22 06:00:00 14.8 7 Este 20 Nordeste 0 -- -- 44
2020-11-22 05:00:00 15 8 Este 27 Nordeste 0 -- -- 44
2020-11-22 04:00:00 15.1 9 Este 24 Este 0 -- -- 45
2020-11-22 03:00:00 15.2 9 Este 28 Este 0 -- -- 44
2020-11-22 02:00:00 15.5 9 Este 32 Este 0 -- -- 42
2020-11-22 01:00:00 15.6 10 Este 27 Este 0 -- -- 42
2020-11-22 00:00:00 16.2 13 Nordeste 36 Este 0 -- -- 41
2020-11-21 23:00:00 16.3 15 Este 39 Este 0 -- -- 40
2020-11-21 22:00:00 16.3 14 Este 31 Este 0 -- -- 40
2020-11-21 21:00:00 16 13 Este 31 Este 0 -- -- 41
2020-11-21 20:00:00 16.2 8 Este 22 Este 0 -- -- 39
2020-11-21 19:00:00 16.1 7 Este 24 Este 0 -- -- 40
2020-11-21 18:00:00 16.9 11 Este 33 Este 0 -- -- 40
2020-11-21 17:00:00 19.1 6 Este 21 Sudeste 0 -- -- 35
2020-11-21 16:00:00 20 6 Este 27 Este 0 -- -- 34
2020-11-21 15:00:00 20.8 8 Este 23 Este 0 -- -- 32
2020-11-21 14:00:00 21 9 Este 27 Sudeste 0 -- -- 31
2020-11-21 13:00:00 21.1 11 Este 31 Este 0 -- -- 32
2020-11-21 12:00:00 21.2 9 Este 28 Este 0 -- -- 32
2020-11-21 11:00:00 20.8 9 Este 27 Este 0 -- -- 33
2020-11-21 10:00:00 20.1 9 Este 25 Sur 0 -- -- 32
2020-11-21 09:00:00 16.9 6 Este 14 Este 0 -- -- 37
2020-11-21 08:00:00 14.2 3 Este 15 Este 0 -- -- 44
2020-11-21 07:00:00 14.7 4 Este 17 Este 0 -- -- 41
2020-11-21 06:00:00 15.2 5 Este 17 Este 0 -- -- 39
2020-11-21 05:00:00 15.5 4 Este 14 Este 0 -- -- 37
2020-11-21 04:00:00 15.6 6 Este 17 Nordeste 0 -- -- 37
2020-11-21 03:00:00 15.6 5 Este 18 Este 0 -- -- 33
2020-11-21 02:00:00 16.1 6 Nordeste 16 Este 0 -- -- 33
2020-11-21 01:00:00 16.5 5 Nordeste 14 Este 0 -- -- 34
2020-11-21 00:00:00 16.9 2 Sudoeste 11 Sudeste 0 -- -- 32
2020-11-20 23:00:00 16.9 4 Noroeste 14 Nordeste 0 -- -- 32
2020-11-20 22:00:00 17.1 3 Sudoeste 8 Noroeste 0 -- -- 35
2020-11-20 21:00:00 16.8 3 Norte 6 Este 0 -- -- 35
2020-11-20 20:00:00 17.1 3 Norte 8 Nordeste 0 -- -- 31
2020-11-20 19:00:00 17.4 4 Noroeste 9 Noroeste 0 -- -- 34
2020-11-20 18:00:00 19.4 2 Sudeste 5 Sudeste 0 -- -- 33
2020-11-20 17:00:00 21.8 3 Sudeste 11 Sudeste 0 -- -- 27
2020-11-20 16:00:00 22.1 4 Sudeste 15 Sur 0 -- -- 34
2020-11-20 15:00:00 22.8 4 Sudeste 15 Sudeste 0 -- -- 34
2020-11-20 14:00:00 22.6 5 Sudeste 15 Sudeste 0 -- -- 35
2020-11-20 13:00:00 22.6 7 Este 17 Este 0 -- -- 35
2020-11-20 12:00:00 21.9 6 Este 22 Este 0 -- -- 38
2020-11-20 11:00:00 22 6 Este 21 Este 0 -- -- 38
2020-11-20 10:00:00 20.4 10 Este 17 Este 0 -- -- 41
2020-11-20 09:00:00 18.7 5 Nordeste 13 Nordeste 0 -- -- 43
2020-11-20 08:00:00 16.5 4 Nordeste 17 Noroeste 0 -- -- 42
2020-11-20 07:00:00 16.5 4 Sudeste 18 Sur 0 -- -- 39
2020-11-20 06:00:00 16.8 8 Sudeste 12 Sudeste 0 -- -- 36
2020-11-20 05:00:00 17.8 3 Sudoeste 12 Este 0 -- -- 34
2020-11-20 04:00:00 17.6 5 Oeste 8 Sudoeste 0 -- -- 35
2020-11-20 03:00:00 17.4 5 Sudoeste 9 Oeste 0 -- -- 36
2020-11-20 02:00:00 17.9 4 Sudoeste 8 Sudoeste 0 -- -- 35
2020-11-20 01:00:00 16.7 8 Oeste 10 Sudoeste 0 -- -- 37
2020-11-20 00:00:00 17.8 6 Sudoeste 10 Sudoeste 0 -- -- 34
2020-11-19 23:00:00 17.8 8 Sudoeste 10 Sudoeste 0 -- -- 35
2020-11-19 22:00:00 17.3 6 Sudoeste 9 Sudoeste 0 -- -- 38
2020-11-19 21:00:00 18.1 3 Sudoeste 8 Sudoeste 0 -- -- 40
2020-11-19 20:00:00 17.6 6 Oeste 6 Oeste 0 -- -- 44
2020-11-19 19:00:00 17.8 3 Oeste 6 Oeste 0 -- -- 57
2020-11-19 18:00:00 18.8 0 Calma 4 Este 0 -- -- 68
2020-11-19 17:00:00 20.4 4 Este 10 Este 0 -- -- 63
2020-11-19 16:00:00 21.6 5 Este 13 Este 0 -- -- 59
2020-11-19 15:00:00 22.6 6 Este 15 Este 0 -- -- 57
2020-11-19 14:00:00 24.8 4 Sudeste 17 Este 0 -- -- 49
2020-11-19 13:00:00 24.6 7 Este 19 Este 0 -- -- 49
2020-11-19 12:00:00 25 5 Este 18 Este 0 -- -- 41
2020-11-19 11:00:00 24.6 8 Este 15 Este 0 -- -- 36
2020-11-19 10:00:00 23.9 5 Este 12 Este 0 -- -- 29
2020-11-19 09:00:00 20.2 4 Este 7 Noroeste 0 -- -- 33
2020-11-19 08:00:00 18 4 Oeste 9 Noroeste 0 -- -- 36
2020-11-19 07:00:00 17.8 5 Oeste 10 Noroeste 0 -- -- 38
2020-11-19 06:00:00 18.1 4 Sudoeste 5 Oeste 0 -- -- 37
2020-11-19 05:00:00 18.9 6 Sudoeste 11 Noroeste 0 -- -- 36
2020-11-19 04:00:00 18.6 7 Oeste 10 Noroeste 0 -- -- 36
2020-11-19 03:00:00 18.2 4 Oeste 6 Oeste 0 -- -- 37
2020-11-19 02:00:00 18.8 5 Sudoeste 7 Sudoeste 0 -- -- 36
2020-11-19 01:00:00 19.6 6 Sudoeste 7 Sudoeste 0 -- -- 34
2020-11-19 00:00:00 19.2 5 Oeste 8 Noroeste 0 -- -- 35
2020-11-18 23:00:00 19.2 5 Oeste 7 Oeste 0 -- -- 35
2020-11-18 22:00:00 19.2 4 Sudoeste 9 Oeste 0 -- -- 38
2020-11-18 21:00:00 19 6 Oeste 9 Sudoeste 0 -- -- 39
2020-11-18 20:00:00 19.9 5 Sudoeste 9 Sudoeste 0 -- -- 36
2020-11-18 19:00:00 20.1 6 Noroeste 8 Noroeste 0 -- -- 38
2020-11-18 18:00:00 22.2 3 Norte 11 Sudeste 0 -- -- 34
2020-11-18 17:00:00 24.9 5 Sudeste 12 Sudeste 0 -- -- 28
2020-11-18 16:00:00 25.7 5 Sudeste 15 Sudeste 0 -- -- 27
2020-11-18 15:00:00 26.3 5 Sudeste 20 Sudeste -- -- -- 27
2020-11-18 14:00:00 26.9 6 Sudeste 22 Sudeste 0 -- -- 25
2020-11-18 13:00:00 27.1 6 Este 18 Este 0 -- -- 25
2020-11-18 12:00:00 26.6 6 Sudeste 19 Este 0 -- -- 24
2020-11-18 11:00:00 25.8 5 Sudeste 16 Sudeste 0 -- -- 25
2020-11-18 10:00:00 24.6 5 Este 15 Este 0 -- -- 26
2020-11-18 09:00:00 21.2 3 Nordeste 11 Este 0 -- -- 31
2020-11-18 08:00:00 19.2 3 Noroeste 15 Este 0 -- -- 33
2020-11-18 07:00:00 19.6 2 Oeste 14 Nordeste 0 -- -- 32
2020-11-18 06:00:00 19.6 3 Sudoeste 11 Sur 0 -- -- 31
2020-11-18 05:00:00 20 3 Sur 19 Noroeste 0 -- -- 31
2020-11-18 04:00:00 19.5 5 Este 15 Este 0 -- -- 32
2020-11-18 03:00:00 20.5 9 Sur 15 Sudeste 0 -- -- 30
2020-11-18 02:00:00 20.7 5 Sur 14 Sudoeste 0 -- -- 30
2020-11-18 01:00:00 20.4 4 Sudoeste 18 Nordeste 0 -- -- 30
2020-11-18 00:00:00 20.7 3 Nordeste 26 Nordeste 0 -- -- 31
2020-11-17 23:00:00 21.3 11 Nordeste 28 Este 0 -- -- 31
2020-11-17 22:00:00 21.3 8 Nordeste 23 Nordeste 0 -- -- 31
2020-11-17 21:00:00 20.6 5 Nordeste 20 Este 0 -- -- 33
2020-11-17 20:00:00 19.9 4 Norte 11 Este 0 -- -- 35
2020-11-17 19:00:00 20.6 2 Este 9 Sur 0 -- -- 34
2020-11-17 18:00:00 22.3 3 Sudeste 10 Sudeste 0 -- -- 31
2020-11-17 17:00:00 24.9 6 Sudeste 15 Sudeste 0 -- -- 28
2020-11-17 16:00:00 25.7 6 Sudeste 18 Sur 0 -- -- 27
2020-11-17 15:00:00 26.5 6 Sudeste 21 Sudeste 0 -- -- 26
2020-11-17 14:00:00 27 7 Sudeste 23 Sudeste 0 -- -- 24
2020-11-17 13:00:00 27.3 8 Este 22 Este 0 -- -- 23
2020-11-17 12:00:00 27.1 6 Este 20 Nordeste 0 -- -- 23
2020-11-17 11:00:00 26.1 8 Este 18 Este 0 -- -- 24
2020-11-17 10:00:00 23.5 4 Este 13 Este 0 -- -- 26
2020-11-17 09:00:00 20.9 0 Calma 5 Oeste 0 -- -- 29
2020-11-17 08:00:00 20.4 3 Sudoeste 9 Oeste 0 -- -- 29
2020-11-17 07:00:00 19.9 3 Oeste 8 Oeste 0 -- -- 32
2020-11-17 06:00:00 19.8 5 Noroeste 13 Sudeste 0 -- -- 32
2020-11-17 05:00:00 20.4 3 Este 13 Sudoeste 0 -- -- 31
2020-11-17 04:00:00 21.1 5 Sudeste 12 Este 0 -- -- 28
2020-11-17 03:00:00 20.9 3 Sur 10 Sudeste 0 -- -- 28
2020-11-17 02:00:00 20.9 0 Calma 5 Nordeste 0 -- -- 28
2020-11-17 01:00:00 21.2 0 Calma 5 Oeste 0 -- -- 28
2020-11-17 00:00:00 21.4 3 Sudeste 8 Norte 0 -- -- 27
2020-11-16 23:00:00 20.7 3 Sudoeste 6 Noroeste 0 -- -- 28
2020-11-16 22:00:00 20.3 3 Noroeste 6 Nordeste 0 -- -- 29
2020-11-16 21:00:00 20.8 2 Oeste 8 Oeste 0 -- -- 28
2020-11-16 20:00:00 20.5 4 Noroeste 6 Oeste 0 -- -- 29
2020-11-16 19:00:00 21.3 4 Sudoeste 9 Noroeste 0 -- -- 27
2020-11-16 18:00:00 23.1 0 Calma 5 Oeste 0 -- -- 27
2020-11-16 17:00:00 26.3 4 Sudeste 17 Sudeste 0 -- -- 22
2020-11-16 16:00:00 27.1 4 Sudeste 18 Sudeste 0 -- -- 21
2020-11-16 15:00:00 27.3 5 Sur 22 Sudeste 0 -- -- 22
2020-11-16 14:00:00 26.5 4 Sudeste 19 Sudeste 0 -- -- 23
2020-11-16 13:00:00 25.5 5 Sudeste 22 Sudeste 0 -- -- 24
2020-11-16 12:00:00 27.7 6 Sudeste 23 Sudeste 0 -- -- 21
2020-11-16 11:00:00 26.6 6 Este 16 Este 0 -- -- 24
2020-11-16 10:00:00 23.5 5 Este 10 Oeste 0 -- -- 28
2020-11-16 09:00:00 21.2 2 Este 17 Sur 0 -- -- 31
2020-11-16 08:00:00 20.1 3 Noroeste 9 Noroeste 0 -- -- 32
2020-11-16 07:00:00 19.8 4 Oeste 8 Oeste 0 -- -- 32
2020-11-16 06:00:00 20.7 4 Sur 9 Sur 0 -- -- 29
2020-11-16 05:00:00 20.6 3 Oeste 6 Oeste 0 -- -- 29
2020-11-16 04:00:00 21.1 2 Sudoeste 5 Sudoeste 0 -- -- 29
2020-11-16 03:00:00 22 2 Oeste 10 Sudoeste 0 -- -- 27
2020-11-16 02:00:00 21.8 6 Sur 17 Sudoeste 0 -- -- 27
2020-11-16 01:00:00 20.9 6 Noroeste 9 Noroeste 0 -- -- 26
2020-11-16 00:00:00 22.2 2 Este 18 Oeste 0 -- -- 24
2020-11-15 23:00:00 22.4 10 Oeste 20 Oeste 0 -- -- 23
2020-11-15 22:00:00 21.6 8 Oeste 19 Oeste 0 -- -- 24
2020-11-15 21:00:00 22.1 11 Oeste 18 Sudoeste 0 -- -- 24
2020-11-15 20:00:00 21.8 11 Oeste 23 Sudoeste 0 -- -- 25
2020-11-15 19:00:00 21.4 10 Oeste 19 Oeste 0 -- -- 28
2020-11-15 18:00:00 23 3 Oeste 12 Nordeste 0 -- -- 27
2020-11-15 17:00:00 24.4 4 Sudeste 18 Sudeste 0 -- -- 26
2020-11-15 16:00:00 25.3 9 Sudeste 28 Sur 0 -- -- 26
2020-11-15 15:00:00 25.6 9 Sudeste 38 Sur 0 -- -- 25
2020-11-15 14:00:00 26.6 7 Sudeste 32 Sudeste 0 -- -- 25
2020-11-15 13:00:00 26.2 10 Sur 30 Sur 0 -- -- 27
2020-11-15 12:00:00 26.3 7 Sudeste 24 Sudeste 0 -- -- 27
2020-11-15 11:00:00 25.4 6 Sur 21 Sur 0 -- -- 30
2020-11-15 10:00:00 24.1 6 Este 23 Sudoeste 0 -- -- 31
2020-11-15 09:00:00 21.8 5 Sudeste 15 Oeste 0 -- -- 34
2020-11-15 08:00:00 19.6 10 Oeste 20 Oeste 0 -- -- 36
2020-11-15 07:00:00 19.4 12 Noroeste 18 Oeste 0 -- -- 39
2020-11-15 06:00:00 19.6 7 Noroeste 16 Oeste 0 -- -- 41
2020-11-15 05:00:00 20 7 Noroeste 16 Noroeste 0 -- -- 40
2020-11-15 04:00:00 20 5 Noroeste 17 Noroeste 0 -- -- 37
2020-11-15 03:00:00 20.7 9 Noroeste 15 Noroeste 0 -- -- 38
2020-11-15 02:00:00 20.9 7 Noroeste 18 Noroeste 0 -- -- 37
2020-11-15 01:00:00 20.9 4 Oeste 20 Noroeste 0 -- -- 36
2020-11-15 00:00:00 21.3 9 Noroeste 21 Oeste 0 -- -- 33
2020-11-14 23:00:00 22.1 3 Sur 21 Noroeste 0 -- -- 30
2020-11-14 22:00:00 21.8 8 Norte 22 Noroeste 0 -- -- 31
2020-11-14 21:00:00 21.3 10 Noroeste 18 Oeste 0 -- -- 39
2020-11-14 20:00:00 21.5 8 Noroeste 29 Noroeste 0 -- -- 40
2020-11-14 19:00:00 22 8 Noroeste 22 Norte 0 -- -- 29
2020-11-14 18:00:00 22.7 8 Noroeste 26 Noroeste 0 -- -- 24
2020-11-14 17:00:00 23.1 10 Noroeste 33 Sudoeste 0 -- -- 27
2020-11-14 16:00:00 24.4 6 Este 15 Este 0 -- -- 23
2020-11-14 15:00:00 25.2 10 Norte 29 Sudoeste 0 -- -- 21
2020-11-14 14:00:00 26.2 6 Noroeste 23 Nordeste 0 -- -- 22
2020-11-14 13:00:00 24.7 8 Este 40 Sudoeste 0 -- -- 25
2020-11-14 12:00:00 24 5 Nordeste 35 Noroeste 0 -- -- 24
2020-11-14 11:00:00 23.5 10 Noroeste 34 Oeste 0 -- -- 23
2020-11-14 10:00:00 22.7 5 Nordeste 18 Oeste 0 -- -- 24
2020-11-14 09:00:00 21.9 5 Sudoeste 15 Sudoeste 0 -- -- 24
2020-11-14 08:00:00 21.1 8 Noroeste 13 Noroeste 0 -- -- 26
2020-11-14 07:00:00 21.3 6 Norte 15 Oeste 0 -- -- 26
2020-11-14 06:00:00 21.1 4 Noroeste 10 Noroeste 0 -- -- 25
2020-11-14 05:00:00 21.1 4 Oeste 22 Sudoeste 0 -- -- 26
2020-11-14 04:00:00 21.3 4 Oeste 17 Sur 0 -- -- 26
2020-11-14 03:00:00 20.6 3 Sudeste 9 Sudeste 0 -- -- 27
2020-11-14 02:00:00 19.9 6 Sur 12 Noroeste 0 -- -- 30
2020-11-14 01:00:00 18.7 9 Noroeste 13 Noroeste 0 -- -- 33
2020-11-14 00:00:00 19.9 0 Calma 9 Noroeste 0 -- -- 28
2020-11-13 23:00:00 19.1 5 Oeste 8 Oeste 0 -- -- 31
2020-11-13 22:00:00 20.7 2 Sudeste 11 Oeste 0 -- -- 27
2020-11-13 21:00:00 20.7 4 Sudoeste 8 Sudoeste 0 -- -- 27
2020-11-13 20:00:00 20.6 4 Oeste 8 Oeste 0 -- -- 28
2020-11-13 19:00:00 20.4 0 Calma 7 Noroeste 0 -- -- 30
2020-11-13 18:00:00 20.4 2 Sudeste 5 Sudoeste 0 -- -- 38
2020-11-13 17:00:00 20.7 0 Calma 7 Este 0 -- -- 43
2020-11-13 16:00:00 21.3 2 Este 6 Este 0 -- -- 39
2020-11-13 15:00:00 21.2 2 Este 5 Este 0 -- -- 43
2020-11-13 14:00:00 21.5 3 Este 6 Este 0 -- -- 44
2020-11-13 13:00:00 21.8 2 Este 6 Sudeste 0 -- -- 47
2020-11-13 12:00:00 21.1 2 Este 6 Sudeste 0 -- -- 45
2020-11-13 11:00:00 20.3 0 Calma 5 Sudeste 0 -- -- 43
2020-11-13 10:00:00 20.4 0 Calma 4 Este 0 -- -- 43
2020-11-13 09:00:00 19.8 0 Calma 6 Oeste 0 -- -- 35
2020-11-13 08:00:00 19.3 4 Sur 8 Sudoeste 0 -- -- 37
2020-11-13 07:00:00 19.7 4 Sur 8 Sur 0 -- -- 34
2020-11-13 06:00:00 20 2 Sudeste 6 Sudoeste 0 -- -- 38
2020-11-13 05:00:00 20.9 2 Norte 8 Sudoeste 0 -- -- 29
2020-11-13 04:00:00 20.4 4 Oeste 8 Sudoeste 0 -- -- 30
2020-11-13 03:00:00 20.6 5 Oeste 6 Oeste 0 -- -- 33
2020-11-13 02:00:00 20.5 4 Oeste 7 Sudoeste 0 -- -- 38
2020-11-13 01:00:00 20.2 6 Oeste 8 Noroeste 0 -- -- 43
2020-11-13 00:00:00 19.2 2 Oeste 5 Oeste 0 -- -- 53
2020-11-12 23:00:00 20.6 0 Calma 6 Sudoeste 0 -- -- 50
2020-11-12 22:00:00 20.9 5 Oeste 8 Noroeste 0 -- -- 50
2020-11-12 21:00:00 21 3 Sudoeste 5 Sudoeste 0 -- -- 48
2020-11-12 20:00:00 20.6 2 Nordeste 6 Oeste 0 -- -- 60
2020-11-12 19:00:00 20.9 2 Sudoeste 8 Sudeste 0 -- -- 58
2020-11-12 18:00:00 21.1 2 Nordeste 5 Oeste 0 -- -- 61
2020-11-12 17:00:00 22.4 2 Este 9 Este 0 -- -- 58
2020-11-12 16:00:00 23.1 4 Este 10 Sudeste 0 -- -- 53
2020-11-12 15:00:00 24.9 5 Este 14 Este 0 -- -- 44
2020-11-12 14:00:00 25.9 5 Este 14 Este 0 -- -- 34
2020-11-12 13:00:00 23.9 4 Este 10 Este 0 -- -- 31
2020-11-12 12:00:00 24.2 5 Este 11 Este 0 -- -- 41
2020-11-12 11:00:00 23.3 4 Este 8 Sudeste 0 -- -- 33
2020-11-12 10:00:00 23.1 2 Nordeste 10 Este 0 -- -- 24
2020-11-12 09:00:00 21.2 3 Este 8 Sudeste 0 -- -- 25
2020-11-12 08:00:00 21.5 2 Sudoeste 16 Oeste 0 -- -- 19
2020-11-12 07:00:00 19.9 4 Oeste 17 Oeste 0 -- -- 21
2020-11-12 06:00:00 20.7 8 Oeste 13 Sudoeste 0 -- -- 19
2020-11-12 05:00:00 22 5 Sudoeste 21 Oeste 0 -- -- 19
2020-11-12 04:00:00 21.7 6 Oeste 17 Oeste 0 -- -- 20
2020-11-12 03:00:00 20.9 6 Noroeste 14 Noroeste 0 -- -- 23
2020-11-12 02:00:00 21.4 3 Nordeste 13 Oeste 0 -- -- 23
2020-11-12 01:00:00 21.6 5 Sur 26 Oeste 0 -- -- 23
2020-11-12 00:00:00 21.9 13 Oeste 27 Oeste 0 -- -- 23
2020-11-11 23:00:00 21.8 12 Oeste 25 Oeste 0 -- -- 23
2020-11-11 22:00:00 21.6 15 Oeste 33 Oeste 0 -- -- 29
2020-11-11 21:00:00 21.9 13 Oeste 30 Oeste 0 -- -- 31
2020-11-11 20:00:00 21.8 15 Oeste 27 Oeste 0 -- -- 29
2020-11-11 19:00:00 21.7 15 Oeste 28 Oeste 0 -- -- 29
2020-11-11 18:00:00 22 9 Oeste 18 Oeste 0 -- -- 30
2020-11-11 17:00:00 20.5 2 Oeste 11 Este 0 -- -- 54
2020-11-11 16:00:00 21.7 7 Este 17 Este 0 -- -- 63
2020-11-11 15:00:00 23.1 10 Este 18 Este 0 -- -- 55
2020-11-11 14:00:00 23.4 8 Este 13 Este 0 -- -- 53
2020-11-11 13:00:00 23.8 7 Este 13 Este 0 -- -- 45
2020-11-11 12:00:00 22 6 Este 13 Este 0 -- -- 48
2020-11-11 11:00:00 24.1 5 Nordeste 17 Noroeste 0 -- -- 35
2020-11-11 10:00:00 23.2 4 Oeste 15 Oeste 0 -- -- 17
2020-11-11 09:00:00 19.9 4 Este 13 Noroeste 0 -- -- 25
2020-11-11 08:00:00 21.3 6 Noroeste 18 Oeste 0 -- -- 31
2020-11-11 07:00:00 21.1 9 Oeste 19 Oeste 0 -- -- 31
2020-11-11 06:00:00 19.5 6 Oeste 17 Oeste 0 -- -- 34
2020-11-11 05:00:00 21.2 8 Oeste 17 Oeste 0 -- -- 31
2020-11-11 04:00:00 20.9 6 Oeste 15 Oeste 0 -- -- 30
2020-11-11 03:00:00 20.5 5 Oeste 23 Noroeste 0 -- -- 29
2020-11-11 02:00:00 17.7 6 Oeste 15 Noroeste 0 -- -- 36
2020-11-11 01:00:00 21.2 8 Noroeste 22 Oeste 0 -- -- 31
2020-11-11 00:00:00 19.6 9 Oeste 22 Oeste 0 -- -- 34
2020-11-10 23:00:00 18.9 4 Sudeste 16 Noroeste 0 -- -- 37
2020-11-10 22:00:00 17.5 3 Este 13 Oeste 0 -- -- 42
2020-11-10 21:00:00 18.7 5 Oeste 20 Noroeste 0 -- -- 41
2020-11-10 20:00:00 21.2 13 Noroeste 29 Noroeste 0 -- -- 31
2020-11-10 19:00:00 15.7 8 Noroeste 21 Noroeste 0 -- -- 65
2020-11-10 18:00:00 16.3 4 Este 10 Este 0 -- -- 76
2020-11-10 17:00:00 19.2 3 Este 9 Este 0 -- -- 64
2020-11-10 16:00:00 19.9 5 Este 12 Este 0 -- -- 62
2020-11-10 15:00:00 20.1 6 Este 13 Este 0 -- -- 64
2020-11-10 14:00:00 20.3 7 Este 15 Este 0 -- -- 65
2020-11-10 13:00:00 20.6 7 Este 16 Este 0 -- -- 63
2020-11-10 12:00:00 19.4 7 Este 15 Este 0 -- -- 66
2020-11-10 11:00:00 18.9 7 Este 13 Este 0 -- -- 66
2020-11-10 10:00:00 17.2 5 Este 11 Nordeste 0 -- -- 72
2020-11-10 09:00:00 13.5 2 Norte 8 Este 0 -- -- 83
2020-11-10 08:00:00 11.7 3 Sur 7 Oeste 0 -- -- 72
2020-11-10 07:00:00 11.7 5 Sudeste 9 Oeste 0 -- -- 93
2020-11-10 06:00:00 11.4 7 Sudoeste 9 Sudoeste 0 -- -- 97
2020-11-10 05:00:00 11.6 4 Sur 7 Sudoeste 0 -- -- 94
2020-11-10 04:00:00 11.5 4 Sudoeste 9 Sudoeste 0 -- -- 92
2020-11-10 03:00:00 11.1 4 Oeste 9 Sudoeste 0 -- -- 95
2020-11-10 02:00:00 11.6 3 Sudoeste 8 Oeste 0 -- -- 91
2020-11-10 01:00:00 11.3 4 Sudoeste 7 Sudoeste 0 -- -- 87
2020-11-10 00:00:00 11.9 3 Sudoeste 10 Sur 0 -- -- 88
2020-11-09 23:00:00 11.6 7 Oeste 11 Oeste 0 -- -- 81
2020-11-09 22:00:00 12.2 5 Sudoeste 9 Sudoeste 0 -- -- 81
2020-11-09 21:00:00 12.8 0 Calma 7 Sudoeste 0 -- -- 76
2020-11-09 20:00:00 13.7 3 Oeste 5 Sudeste 0 -- -- 76
2020-11-09 19:00:00 15.5 3 Sudeste 6 Sudeste 0 -- -- 64
2020-11-09 18:00:00 16.4 3 Este 9 Este 0 -- -- 71
2020-11-09 17:00:00 17.8 3 Sudeste 10 Sudoeste 0 -- -- 71
2020-11-09 16:00:00 20.1 4 Este 15 Este 0 -- -- 63
2020-11-09 15:00:00 20.9 6 Sudeste 17 Sudeste 0 -- -- 59
2020-11-09 14:00:00 20.9 5 Este 17 Este 0 -- -- 58
2020-11-09 13:00:00 21.5 5 Este 21 Este 0 -- -- 55
2020-11-09 12:00:00 20.3 5 Sudeste 17 Este 0 -- -- 58
2020-11-09 11:00:00 18.7 6 Este 15 Este 0 -- -- 62
2020-11-09 10:00:00 17 5 Sudeste 13 Este 0 -- -- 67
2020-11-09 09:00:00 13.8 6 Nordeste 10 Nordeste 0 -- -- 79
2020-11-09 08:00:00 11 2 Noroeste 8 Noroeste 0 -- -- 83
2020-11-09 07:00:00 10.5 5 Oeste 6 Oeste 0 -- -- 89
2020-11-09 06:00:00 10.6 3 Oeste 6 Noroeste 0 -- -- 90
2020-11-09 05:00:00 10.8 5 Noroeste 8 Noroeste 0 -- -- 90
2020-11-09 04:00:00 11.1 2 Oeste 5 Noroeste 0 -- -- 88
2020-11-09 03:00:00 11.5 4 Oeste 5 Oeste 0 -- -- 86
2020-11-09 02:00:00 11.6 3 Oeste 6 Sudoeste 0 -- -- 88
2020-11-09 01:00:00 12.2 3 Sudoeste 6 Noroeste 0 -- -- 88
2020-11-09 00:00:00 12.6 4 Sudoeste 6 Sudoeste 0 -- -- 94
2020-11-08 23:00:00 12.6 3 Oeste 5 Noroeste 0 -- -- 92
2020-11-08 22:00:00 13 2 Oeste 6 Oeste 0 -- -- 93
2020-11-08 21:00:00 13.7 3 Sur 8 Sur 0 -- -- 93
2020-11-08 20:00:00 14.3 5 Sur 11 Sudeste 0 -- -- 91
2020-11-08 19:00:00 14.6 2 Sudeste 6 Sudeste 0 -- -- 91
2020-11-08 18:00:00 14.8 3 Este 8 Este 0 -- -- 89
2020-11-08 17:00:00 15.5 4 Este 10 Este 0 -- -- 87
2020-11-08 16:00:00 16.4 4 Este 12 Este 0 -- -- 83
2020-11-08 15:00:00 17.4 4 Este 13 Este 0 -- -- 79
2020-11-08 14:00:00 19 5 Este 15 Este 0 -- -- 72
2020-11-08 13:00:00 20.5 4 Este 19 Sudeste 0 -- -- 68
2020-11-08 12:00:00 19.7 6 Este 19 Este 0 -- -- 63
2020-11-08 11:00:00 18.9 6 Este 14 Sudeste 0 -- -- 63
2020-11-08 10:00:00 17.5 6 Este 12 Nordeste 0 -- -- 67
2020-11-08 09:00:00 14.5 3 Este 8 Este 0 -- -- 75
2020-11-08 08:00:00 12.3 3 Sudoeste 5 Oeste 0 -- -- 81
2020-11-08 07:00:00 11.5 6 Oeste 8 Oeste 0 -- -- 84
2020-11-08 06:00:00 11.4 7 Oeste 8 Oeste 0 -- -- 86
2020-11-08 05:00:00 12.3 3 Sudoeste 5 Sudoeste 0 -- -- 80
2020-11-08 04:00:00 12 5 Oeste 6 Oeste 0 -- -- 82
2020-11-08 03:00:00 12.8 2 Sudoeste 7 Oeste 0 -- -- 80
2020-11-08 02:00:00 12.3 5 Oeste 9 Sudoeste 0 -- -- 85
2020-11-08 01:00:00 12.1 6 Oeste 8 Oeste 0 -- -- 88
2020-11-08 00:00:00 12.4 5 Sudoeste 10 Sudoeste 0 -- -- 86
2020-11-07 23:00:00 12.3 5 Sudoeste 9 Sudoeste 0 -- -- 84
2020-11-07 22:00:00 13 5 Sudoeste 8 Oeste 0 -- -- 95
2020-11-07 21:00:00 13.5 0 Calma 5 Este 0 -- -- 93
2020-11-07 20:00:00 13.8 3 Este 5 Este 0 -- -- 93
2020-11-07 19:00:00 14.1 3 Este 8 Sudeste 0 -- -- 93
2020-11-07 18:00:00 14.8 3 Este 9 Este 0 -- -- 93
2020-11-07 17:00:00 15.4 3 Este 9 Este 0 -- -- 92
2020-11-07 16:00:00 15.8 3 Este 12 Este 0 -- -- 88
2020-11-07 15:00:00 16.6 4 Este 13 Este 0 -- -- 85
2020-11-07 14:00:00 17.4 6 Este 13 Este 0 -- -- 79
2020-11-07 13:00:00 17.3 4 Este 15 Sudeste 0 -- -- 78
2020-11-07 12:00:00 17.2 4 Este 13 Este 0 -- -- 70
2020-11-07 11:00:00 18.7 6 Este 14 Este 0 -- -- 67
2020-11-07 10:00:00 17 6 Este 14 Este 0 -- -- 68
2020-11-07 09:00:00 13.8 5 Este 8 Este 0 -- -- 86
2020-11-07 08:00:00 11.9 3 Este 10 Oeste 0 -- -- 87
2020-11-07 07:00:00 10.7 8 Oeste 11 Oeste 0 -- -- 94
2020-11-07 06:00:00 10.8 3 Oeste 5 Oeste 0 -- -- 94
2020-11-07 05:00:00 10.7 3 Oeste 8 Oeste 0 -- -- 92
2020-11-07 04:00:00 11.3 2 Sur 8 Oeste 0 -- -- 88
2020-11-07 03:00:00 11.2 0 Calma 5 Oeste 0 -- -- 89
2020-11-07 02:00:00 11.4 4 Noroeste 8 Noroeste 0 -- -- 86
2020-11-07 01:00:00 11.5 3 Noroeste 8 Sudoeste 0 -- -- 83
2020-11-07 00:00:00 11.8 7 Sudoeste 9 Sudoeste 0 -- -- 80
2020-11-06 23:00:00 11.4 5 Oeste 8 Oeste 0 -- -- 93
2020-11-06 22:00:00 12.1 4 Oeste 9 Noroeste 0 -- -- 92
2020-11-06 21:00:00 12.9 2 Sudeste 9 Oeste 0 -- -- 94
2020-11-06 20:00:00 13.2 5 Sudoeste 12 Sudoeste 0 -- -- 90
2020-11-06 19:00:00 13.9 7 Sudoeste 13 Sur 0 -- -- 91
2020-11-06 18:00:00 15.4 7 Sudoeste 16 Sudoeste 0 -- -- 75
2020-11-06 17:00:00 17.1 4 Nordeste 36 Oeste 0 -- -- 70
2020-11-06 16:00:00 17 15 Oeste 43 Sudoeste 0 -- -- 70
2020-11-06 15:00:00 16.4 17 Oeste 49 Oeste 0 -- -- 71
2020-11-06 14:00:00 16.2 17 Oeste 39 Oeste 0.2 -- -- 77
2020-11-06 13:00:00 15.3 8 Noroeste 36 Sudoeste 0.4 -- -- 84
2020-11-06 12:00:00 14.8 4 Norte 50 Oeste 2 -- -- 95
2020-11-06 11:00:00 13.9 14 Oeste 43 Oeste 2.8 -- -- 89
2020-11-06 10:00:00 13.6 18 Oeste 48 Sudoeste 2.6 -- -- 88
2020-11-06 09:00:00 13.3 11 Noroeste 44 Sudoeste 2 -- -- 91
2020-11-06 08:00:00 13.2 18 Oeste 48 Sudoeste 2.6 -- -- 89
2020-11-06 07:00:00 13.2 12 Sudoeste 38 Oeste 0.8 -- -- 86
2020-11-06 06:00:00 13.2 11 Nordeste 40 Sudoeste 0 -- -- 85
2020-11-06 05:00:00 13.4 20 Oeste 51 Oeste 0 -- -- 80
2020-11-06 04:00:00 13.2 16 Oeste 41 Noroeste 0 -- -- 76
2020-11-06 03:00:00 13.1 10 Oeste 33 Sudoeste 0 -- -- 77
2020-11-06 02:00:00 13 15 Oeste 37 Oeste 0 -- -- 77
2020-11-06 01:00:00 12.7 12 Noroeste 32 Noroeste 0 -- -- 76
2020-11-06 00:00:00 12.9 12 Noroeste 42 Oeste 0 -- -- 73
2020-11-05 23:00:00 13.6 12 Oeste 30 Sudoeste 0 -- -- 73
2020-11-05 22:00:00 13.9 11 Oeste 32 Noroeste 0 -- -- 75
2020-11-05 21:00:00 14.2 13 Noroeste 36 Noroeste 0 -- -- 73
2020-11-05 20:00:00 14.2 12 Oeste 36 Oeste 0 -- -- 76
2020-11-05 19:00:00 14.4 12 Noroeste 33 Oeste 0 -- -- 75
2020-11-05 18:00:00 15 10 Oeste 41 Sudoeste 0 -- -- 70
2020-11-05 17:00:00 15.9 9 Oeste 28 Sudoeste 0 -- -- 66
2020-11-05 16:00:00 16.6 7 Norte 37 Nordeste 0 -- -- 61
2020-11-05 15:00:00 16.7 8 Norte 32 Sudoeste 0 -- -- 60
2020-11-05 14:00:00 17.5 7 Oeste 24 Oeste 0 -- -- 59
2020-11-05 13:00:00 16.4 5 Sudeste 30 Sudoeste 0 -- -- 69
2020-11-05 12:00:00 16.5 6 Norte 22 Sur 0 -- -- 66
2020-11-05 11:00:00 14.4 4 Sur 30 Sudoeste 0 -- -- 76
2020-11-05 10:00:00 14.3 13 Sudoeste 27 Sudoeste 0 -- -- 70
2020-11-05 09:00:00 13.5 3 Sudeste 23 Oeste 0 -- -- 73
2020-11-05 08:00:00 12.8 6 Sudoeste 19 Oeste 0 -- -- 79
2020-11-05 07:00:00 12.7 8 Oeste 15 Sudoeste 0 -- -- 79
2020-11-05 06:00:00 12.1 4 Nordeste 18 Oeste 0 -- -- 91
2020-11-05 05:00:00 11.6 3 Este 6 Este 0 -- -- 96
2020-11-05 04:00:00 11.7 0 Calma 6 Oeste 0 -- -- 94
2020-11-05 03:00:00 12 2 Sudoeste 6 Noroeste 0 -- -- 94
2020-11-05 02:00:00 12.4 3 Sur 6 Sur 0 -- -- 93
2020-11-05 01:00:00 12.8 3 Oeste 5 Noroeste 0 -- -- 86
2020-11-05 00:00:00 13.1 3 Sudoeste 5 Oeste 0 -- -- 89
2020-11-04 23:00:00 13.7 4 Oeste 7 Oeste 0 -- -- 87
2020-11-04 22:00:00 13.6 2 Noroeste 8 Sudeste 0 -- -- 92
2020-11-04 21:00:00 13.7 0 Calma 5 Nordeste 0 -- -- 92
2020-11-04 20:00:00 14.4 0 Calma 6 Sudeste 0 -- -- 90
2020-11-04 19:00:00 15.1 2 Este 9 Sudeste 0 -- -- 88
2020-11-04 18:00:00 15.8 5 Nordeste 11 Este 0 -- -- 85
2020-11-04 17:00:00 17.4 3 Sur 10 Este 0 -- -- 79
2020-11-04 16:00:00 18.4 4 Este 15 Sudeste 0 -- -- 73
2020-11-04 15:00:00 19.7 5 Sur 21 Este 0 -- -- 68
2020-11-04 14:00:00 20.5 4 Sudeste 22 Sudeste 0 -- -- 63
2020-11-04 13:00:00 22.3 5 Sudeste 19 Sudeste 0 -- -- 59
2020-11-04 12:00:00 20.9 5 Este 12 Este 0 -- -- 58
2020-11-04 11:00:00 19.6 5 Este 12 Nordeste 0 -- -- 60
2020-11-04 10:00:00 19.7 5 Este 14 Este 0 -- -- 56
2020-11-04 09:00:00 16 3 Nordeste 7 Oeste 0 -- -- 72
2020-11-04 08:00:00 13 4 Oeste 6 Oeste 0 -- -- 79
2020-11-04 07:00:00 13.7 5 Sur 12 Sudoeste 0 -- -- 76
2020-11-04 06:00:00 14 3 Sudeste 8 Sudeste 0 -- -- 71
2020-11-04 05:00:00 14.6 4 Sudoeste 8 Sudoeste 0 -- -- 42
2020-11-04 04:00:00 15.1 3 Norte 7 Este 0 -- -- 42
2020-11-04 03:00:00 16.8 0 Calma 8 Sudoeste 0 -- -- 35
2020-11-04 02:00:00 17.5 4 Oeste 8 Oeste 0 -- -- 28
2020-11-04 01:00:00 17.1 6 Oeste 8 Oeste 0 -- -- 28
2020-11-04 00:00:00 17.1 5 Oeste 7 Oeste 0 -- -- 31
2020-11-03 23:00:00 17.5 2 Sudoeste 8 Oeste 0 -- -- 32
2020-11-03 22:00:00 17.2 5 Oeste 10 Oeste 0 -- -- 34
2020-11-03 21:00:00 16.7 4 Sudoeste 9 Oeste 0 -- -- 48
2020-11-03 20:00:00 16.4 4 Oeste 8 Oeste 0 -- -- 76
2020-11-03 19:00:00 17.2 3 Nordeste 6 Sudeste 0 -- -- 77
2020-11-03 18:00:00 18.8 3 Sudoeste 9 Sudoeste 0 -- -- 71
2020-11-03 17:00:00 20.5 3 Este 13 Sudeste 0 -- -- 64
2020-11-03 16:00:00 20.2 4 Sudeste 15 Sudeste 0 -- -- 64
2020-11-03 15:00:00 22.3 6 Sudeste 18 Sudeste 0 -- -- 56
2020-11-03 14:00:00 23.6 8 Sudeste 26 Sudeste 0 -- -- 53
2020-11-03 13:00:00 23.7 8 Sudeste 16 Sur 0 -- -- 49
2020-11-03 12:00:00 23.8 6 Este 16 Este 0 -- -- 41
2020-11-03 11:00:00 22.2 4 Este 15 Sudeste 0 -- -- 50
2020-11-03 10:00:00 21.3 6 Este 12 Este 0 -- -- 41
2020-11-03 09:00:00 18.6 4 Este 9 Este 0 -- -- 40
2020-11-03 08:00:00 16.2 2 Sudeste 8 Noroeste 0 -- -- 43
2020-11-03 07:00:00 15.1 7 Oeste 9 Oeste 0 -- -- 46
2020-11-03 06:00:00 16.2 0 Calma 9 Oeste 0 -- -- 42
2020-11-03 05:00:00 16.1 4 Sudeste 9 Oeste 0 -- -- 42
2020-11-03 04:00:00 16.5 6 Sudoeste 9 Sudoeste 0 -- -- 43
2020-11-03 03:00:00 15.4 9 Oeste 14 Noroeste 0 -- -- 48
2020-11-03 02:00:00 15.9 3 Sudoeste 7 Sudeste 0 -- -- 47
2020-11-03 01:00:00 16.2 5 Norte 16 Sur 0 -- -- 50
2020-11-03 00:00:00 16.5 5 Sudoeste 9 Sudoeste 0 -- -- 53
2020-11-02 23:00:00 15.9 3 Sudoeste 12 Sur 0 -- -- 56
2020-11-02 22:00:00 17.5 5 Sur 12 Sudoeste 0 -- -- 44
2020-11-02 21:00:00 17.3 5 Sudoeste 11 Oeste 0 -- -- 50
2020-11-02 20:00:00 17.7 3 Sudoeste 11 Sur 0 -- -- 63
2020-11-02 19:00:00 18.7 4 Norte 15 Sur 0 -- -- 63
2020-11-02 18:00:00 20.3 3 Este 12 Sur 0 -- -- 54
2020-11-02 17:00:00 22.6 4 Sudeste 18 Sur 0 -- -- 47
2020-11-02 16:00:00 24.7 8 Sudeste 20 Sudeste 0 -- -- 40
2020-11-02 15:00:00 25.7 6 Sudeste 14 Sur 0 -- -- 35
2020-11-02 14:00:00 25 6 Sudeste 19 Sur 0 -- -- 35
2020-11-02 13:00:00 25.1 5 Sudeste 18 Sur 0 -- -- 34
2020-11-02 12:00:00 26.1 8 Este 15 Este 0 -- -- 20
2020-11-02 11:00:00 22.6 4 Este 8 Este 0 -- -- 23
2020-11-02 10:00:00 21.2 2 Este 8 Sur 0 -- -- 25
2020-11-02 09:00:00 19.9 2 Sur 8 Sur 0 -- -- 23
2020-11-02 08:00:00 18.2 2 Oeste 7 Oeste 0 -- -- 21
2020-11-02 07:00:00 18 5 Oeste 8 Sudoeste 0 -- -- 21
2020-11-02 06:00:00 18.3 3 Sudoeste 7 Sudoeste 0 -- -- 20
2020-11-02 05:00:00 19.4 8 Sudoeste 14 Sudoeste 0 -- -- 19
2020-11-02 04:00:00 19.6 6 Sudoeste 18 Sudeste 0 -- -- 18
2020-11-02 03:00:00 21.5 11 Sur 48 Nordeste 0 -- -- 17
2020-11-02 02:00:00 21.6 27 Nordeste 50 Nordeste 0 -- -- 17
2020-11-02 01:00:00 21.3 22 Nordeste 55 Nordeste 0 -- -- 18
2020-11-02 00:00:00 21.2 27 Nordeste 53 Nordeste 0 -- -- 18
2020-11-01 23:00:00 21.4 29 Norte 50 Nordeste 0 -- -- 18
2020-11-01 22:00:00 21.4 24 Norte 46 Nordeste 0 -- -- 20
2020-11-01 21:00:00 21.4 18 Norte 48 Nordeste 0 -- -- 21
2020-11-01 20:00:00 21.8 15 Nordeste 31 Este 0 -- -- 20
2020-11-01 19:00:00 21.9 7 Nordeste 33 Nordeste 0 -- -- 21
2020-11-01 18:00:00 22.4 9 Nordeste 24 Este 0 -- -- 21
2020-11-01 17:00:00 23.6 10 Nordeste 38 Nordeste 0 -- -- 20
2020-11-01 16:00:00 23.4 22 Nordeste 39 Nordeste 0 -- -- 22
2020-11-01 15:00:00 24.9 18 Nordeste 33 Nordeste 0 -- -- 20
2020-11-01 14:00:00 25.9 8 Este 37 Nordeste 0 -- -- 20
2020-11-01 13:00:00 25.7 11 Este 31 Este 0 -- -- 20
2020-11-01 12:00:00 24.5 17 Este 45 Nordeste 0 -- -- 21
2020-11-01 11:00:00 24.6 18 Este 39 Este 0 -- -- 21
2020-11-01 10:00:00 24.4 11 Este 41 Nordeste 0 -- -- 22
2020-11-01 09:00:00 22.7 17 Este 38 Este 0 -- -- 24
2020-11-01 08:00:00 21.3 20 Este 36 Este 0 -- -- 25
2020-11-01 07:00:00 20.5 14 Este 35 Este 0 -- -- 25
2020-11-01 06:00:00 19.9 5 Este 35 Nordeste 0 -- -- 28
2020-11-01 05:00:00 21.1 10 Este 36 Nordeste 0 -- -- 27
2020-11-01 04:00:00 21.6 12 Nordeste 37 Este 0 -- -- 25
2020-11-01 03:00:00 21.7 12 Nordeste 29 Este 0 -- -- 25
2020-11-01 02:00:00 21.4 15 Nordeste 32 Nordeste 0 -- -- 25
2020-11-01 01:00:00 21.7 15 Este 38 Este 0 -- -- 26
2020-11-01 00:00:00 21.4 13 Este 31 Este 0 -- -- 26
2020-10-31 23:00:00 21.3 10 Este 30 Este 0 -- -- 26
2020-10-31 22:00:00 21.4 12 Este 33 Este 0 -- -- 25
2020-10-31 21:00:00 20.9 4 Sudoeste 21 Este 0 -- -- 26
2020-10-31 20:00:00 21.3 5 Sudeste 24 Este 0 -- -- 25
2020-10-31 19:00:00 21.2 4 Sudeste 19 Este 0 -- -- 25
2020-10-31 18:00:00 22.3 5 Sudeste 23 Nordeste 0 -- -- 23
2020-10-31 17:00:00 23.1 13 Este 30 Sudeste 0 -- -- 21
2020-10-31 16:00:00 23.6 16 Este 32 Este 0 -- -- 19
2020-10-31 15:00:00 24.6 13 Este 39 Este 0 -- -- 19
2020-10-31 14:00:00 25.4 13 Este 33 Este 0 -- -- 21
2020-10-31 13:00:00 25.9 10 Este 27 Este 0 -- -- 21
2020-10-31 12:00:00 25.5 9 Este 30 Este 0 -- -- 24
2020-10-31 11:00:00 25.1 9 Este 25 Este 0 -- -- 23
2020-10-31 10:00:00 24.2 7 Este 20 Este 0 -- -- 24
2020-10-31 09:00:00 21.7 7 Este 22 Este 0 -- -- 25
2020-10-31 08:00:00 19.2 4 Este 17 Este 0 -- -- 26
2020-10-31 07:00:00 18.5 6 Nordeste 23 Este 0 -- -- 26
2020-10-31 06:00:00 18.4 4 Sudeste 17 Este 0 -- -- 27
2020-10-31 05:00:00 18.6 8 Nordeste 26 Este 0 -- -- 28
2020-10-31 04:00:00 18.7 5 Sudeste 18 Este 0 -- -- 30
2020-10-31 03:00:00 18.4 3 Nordeste 16 Sudeste 0 -- -- 31
2020-10-31 02:00:00 19.6 4 Sudeste 23 Este 0 -- -- 29
2020-10-31 01:00:00 20 6 Este 30 Este 0 -- -- 26
2020-10-31 00:00:00 21 8 Este 36 Nordeste 0 -- -- 22
2020-10-30 23:00:00 20.5 5 Este 19 Sudeste 0 -- -- 24
2020-10-30 22:00:00 21.1 5 Este 18 Sudeste 0 -- -- 22
2020-10-30 21:00:00 21.1 4 Sudeste 13 Este 0 -- -- 21
2020-10-30 20:00:00 20.8 4 Este 13 Este 0 -- -- 21
2020-10-30 19:00:00 20.6 4 Nordeste 20 Nordeste 0 -- -- 23
2020-10-30 18:00:00 20.5 4 Norte 12 Sudeste 0 -- -- 42
2020-10-30 17:00:00 22.7 2 Este 8 Este 0 -- -- 49
2020-10-30 16:00:00 23.1 4 Este 12 Este 0 -- -- 51
2020-10-30 15:00:00 23.8 6 Este 14 Este 0 -- -- 53
2020-10-30 14:00:00 26.2 6 Este 16 Este 0 -- -- 47
2020-10-30 13:00:00 25.2 5 Este 14 Este 0 -- -- 47
2020-10-30 12:00:00 25.6 8 Este 15 Sudeste 0 -- -- 42
2020-10-30 11:00:00 24.8 6 Este 13 Este 0 -- -- 42
2020-10-30 10:00:00 24.8 5 Este 14 Este 0 -- -- 30
2020-10-30 09:00:00 21.6 4 Este 12 Este 0 -- -- 31
2020-10-30 08:00:00 18.7 3 Nordeste 9 Sudoeste 0 -- -- 35
2020-10-30 07:00:00 17 9 Sur 14 Sur 0 -- -- 42
2020-10-30 06:00:00 15.8 6 Sudoeste 13 Sur 0 -- -- 45
2020-10-30 05:00:00 15.4 8 Sudoeste 13 Sudoeste 0 -- -- 45
2020-10-30 04:00:00 14.7 6 Sudoeste 10 Sudoeste 0 -- -- 57
2020-10-30 03:00:00 16.2 3 Este 8 Oeste 0 -- -- 44
2020-10-30 02:00:00 14.2 7 Oeste 8 Oeste 0 -- -- 48
2020-10-30 01:00:00 14.1 0 Calma 7 Noroeste 0 -- -- 63
2020-10-30 00:00:00 14.5 2 Nordeste 7 Norte 0 -- -- 69